Time;durP1;ratioP1;P1;durP2;ratioP2;P2;SDS_P1;SDS_P2;PMS_P1;PMS_P2;Temp;Humidity;BMP_temperature;BMP_pressure;BME280_temperature;BME280_humidity;BME280_pressure;Samples;Min_cycle;Max_cycle;Signal;HPM_P1;HPM_P2
2021/11/06 00:01:47;;;;;;;;;42.00;36.50;;;;;9.41;66.93;102851.56;5004593;28;45329;-69
2021/11/06 00:04:13;;;;;;;;;37.75;32.00;;;;;9.38;67.19;102852.47;4985474;28;45367;-68
2021/11/06 00:06:39;;;;;;;;;33.00;29.25;;;;;9.37;66.97;102857.75;5002875;28;45222;-66
2021/11/06 00:09:05;;;;;;;;;41.50;32.75;;;;;9.31;67.27;102853.47;5003225;28;45471;-68
2021/11/06 00:11:31;;;;;;;;;36.00;35.00;;;;;9.29;67.05;102851.78;5002954;28;45318;-66
2021/11/06 00:13:57;;;;;;;;;40.00;36.25;;;;;9.23;66.93;102858.03;5002702;28;46402;-68
2021/11/06 00:16:22;;;;;;;;;50.25;39.25;;;;;9.19;67.54;102854.59;5002863;28;45445;-69
2021/11/06 00:18:48;;;;;;;;;41.50;36.00;;;;;9.14;67.21;102856.44;5016862;28;45308;-67
2021/11/06 00:21:13;;;;;;;;;41.00;37.00;;;;;9.11;67.20;102863.53;5004142;28;45262;-71
2021/11/06 00:23:39;;;;;;;;;47.00;38.75;;;;;9.06;67.72;102871.50;5022588;28;46070;-67
2021/11/06 00:26:04;;;;;;;;;49.75;38.50;;;;;9.02;67.82;102866.34;5015560;28;45466;-67
2021/11/06 00:28:30;;;;;;;;;40.50;33.00;;;;;8.97;67.97;102863.78;5019280;28;45433;-64
2021/11/06 00:30:55;;;;;;;;;49.00;41.25;;;;;8.93;67.87;102860.38;5022678;28;45261;-68
2021/11/06 00:33:21;;;;;;;;;45.50;40.25;;;;;8.90;67.92;102856.91;5022281;28;45293;-67
2021/11/06 00:35:46;;;;;;;;;43.25;36.25;;;;;8.89;68.24;102848.16;5022621;28;45329;-68
2021/11/06 00:38:12;;;;;;;;;49.25;38.00;;;;;8.89;68.27;102855.19;5022338;28;45335;-65
2021/11/06 00:40:37;;;;;;;;;50.00;39.25;;;;;8.86;68.27;102855.25;5022444;28;45208;-67
2021/11/06 00:43:03;;;;;;;;;53.00;39.75;;;;;8.83;68.38;102844.78;5021547;28;45311;-71
2021/11/06 00:45:28;;;;;;;;;48.00;39.50;;;;;8.85;68.32;102843.00;5022603;28;45218;-66
2021/11/06 00:47:54;;;;;;;;;45.50;38.25;;;;;8.87;68.29;102844.72;5020870;28;45195;-66
2021/11/06 00:50:20;;;;;;;;;49.75;41.00;;;;;8.89;68.25;102842.03;5022393;28;45272;-70
2021/11/06 00:52:47;;;;;;;;;52.25;40.25;;;;;8.92;68.25;102836.72;5021149;28;46396;-66
2021/11/06 00:55:14;;;;;;;;;51.50;39.25;;;;;8.93;67.83;102839.34;5021242;28;45352;-68
2021/11/06 00:57:39;;;;;;;;;53.75;39.75;;;;;8.93;67.88;102835.84;5020925;28;45254;-68
2021/11/06 01:00:09;;;;;;;;;40.50;33.00;;;;;8.92;67.95;102828.84;5022322;28;45385;-67
2021/11/06 01:02:35;;;;;;;;;51.00;42.25;;;;;8.93;68.21;102828.84;5021847;28;46216;-68
2021/11/06 01:05:01;;;;;;;;;50.00;40.00;;;;;8.94;67.74;102817.41;5022109;28;45343;-71
2021/11/06 01:07:26;;;;;;;;;48.25;39.50;;;;;8.97;67.90;102826.13;5021981;28;45383;-69
2021/11/06 01:09:52;;;;;;;;;55.50;41.50;;;;;8.96;67.67;102827.91;5021764;28;45254;-67
2021/11/06 01:12:18;;;;;;;;;54.75;40.75;;;;;8.86;67.66;102816.69;5021134;28;46187;-65
2021/11/06 01:14:44;;;;;;;;;42.25;37.25;;;;;8.83;67.99;102821.13;5021778;28;45380;-66
2021/11/06 01:17:10;;;;;;;;;51.50;40.00;;;;;8.77;68.36;102827.38;5021713;28;46626;-66
2021/11/06 01:19:36;;;;;;;;;52.50;41.00;;;;;8.73;68.67;102830.09;5021640;28;45194;-65
2021/11/06 01:22:01;;;;;;;;;55.25;38.25;;;;;8.71;68.60;102831.88;5021530;28;45270;-75
2021/11/06 01:24:27;;;;;;;;;50.00;40.25;;;;;8.68;68.70;102823.13;5021594;28;45333;-67
2021/11/06 01:26:53;;;;;;;;;50.00;40.00;;;;;8.66;68.33;102829.31;5025448;28;45318;-65
2021/11/06 01:29:18;;;;;;;;;43.25;39.75;;;;;8.64;68.55;102833.75;5041478;28;45306;-66
2021/11/06 01:31:44;;;;;;;;;46.00;40.25;;;;;8.61;68.88;102824.16;5041263;28;46026;-65
2021/11/06 01:34:10;;;;;;;;;29.50;27.75;;;;;8.63;68.93;102830.25;5041159;28;45510;-66
2021/11/06 01:36:35;;;;;;;;;47.50;39.25;;;;;8.64;68.72;102826.72;5024748;28;45332;-66
2021/11/06 01:39:01;;;;;;;;;55.50;43.75;;;;;8.65;68.50;102820.56;5021566;28;45292;-69
2021/11/06 01:41:27;;;;;;;;;48.00;39.25;;;;;8.61;68.50;102818.91;5027754;28;45815;-67
2021/11/06 01:43:52;;;;;;;;;45.50;38.75;;;;;8.54;68.54;102817.28;5039365;28;45432;-68
2021/11/06 01:46:18;;;;;;;;;46.00;40.25;;;;;8.50;68.57;102830.47;5040075;28;45442;-67
2021/11/06 01:48:44;;;;;;;;;44.50;39.00;;;;;8.48;69.29;102821.78;5040282;28;45462;-68
2021/11/06 01:51:09;;;;;;;;;51.00;40.00;;;;;8.45;69.06;102824.44;5039787;28;45425;-68
2021/11/06 01:53:35;;;;;;;;;52.50;40.50;;;;;8.44;69.07;102818.31;5037877;28;45384;-68
2021/11/06 01:56:01;;;;;;;;;42.50;37.75;;;;;8.44;69.40;102818.31;5020020;28;45317;-68
2021/11/06 01:58:29;;;;;;;;;40.00;37.00;;;;;8.46;69.76;102818.31;5021357;28;45244;-68
2021/11/06 02:00:55;;;;;;;;;47.00;39.00;;;;;8.44;69.36;102822.69;5021100;28;46384;-68
2021/11/06 02:03:21;;;;;;;;;42.00;37.50;;;;;8.43;69.70;102824.47;5012875;28;45308;-68
2021/11/06 02:05:47;;;;;;;;;52.00;39.50;;;;;8.44;69.63;102825.31;5016562;28;45468;-68
2021/11/06 02:08:17;;;;;;;;;42.00;36.25;;;;;8.44;69.75;102817.44;5020796;28;45497;-68
2021/11/06 02:10:44;;;;;;;;;45.50;39.00;;;;;8.44;69.47;102828.81;5020918;28;45295;-68
2021/11/06 02:13:10;;;;;;;;;48.50;37.00;;;;;8.46;69.50;102824.44;5020888;28;45420;-68
2021/11/06 02:15:36;;;;;;;;;46.25;38.75;;;;;8.47;69.12;102818.28;5003360;28;45317;-68
2021/11/06 02:18:02;;;;;;;;;45.25;36.50;;;;;8.50;69.35;102823.47;5021100;28;45397;-68
2021/11/06 02:20:28;;;;;;;;;37.00;34.25;;;;;8.51;68.89;102822.56;5020888;28;45332;-68
2021/11/06 02:22:54;;;;;;;;;38.50;36.00;;;;;8.52;69.31;102821.66;5020913;28;45404;-68
2021/11/06 02:25:20;;;;;;;;;43.25;35.75;;;;;8.48;68.95;102829.66;5020458;28;45370;-68
2021/11/06 02:27:46;;;;;;;;;46.50;38.75;;;;;8.40;69.00;102827.16;5020720;28;45226;-68
2021/11/06 02:30:16;;;;;;;;;42.00;35.50;;;;;8.37;69.29;102824.56;5020513;28;45392;-68
2021/11/06 02:32:43;;;;;;;;;43.50;36.50;;;;;8.38;69.27;102818.44;5020668;28;45277;-68
2021/11/06 02:35:09;;;;;;;;;15.75;11.25;;;;;8.39;69.01;102823.66;5020652;28;45511;-68
2021/11/06 02:37:35;;;;;;;;;41.00;32.50;;;;;8.41;69.32;102813.13;5021119;28;45304;-68
2021/11/06 02:40:01;;;;;;;;;43.50;37.00;;;;;8.43;68.99;102813.97;5020280;28;45616;-68
2021/11/06 02:42:27;;;;;;;;;44.50;37.25;;;;;8.43;68.99;102813.97;5020617;28;45208;-68
2021/11/06 02:44:52;;;;;;;;;44.50;37.75;;;;;8.39;69.14;102812.28;5020625;28;45485;-68
2021/11/06 02:47:18;;;;;;;;;41.75;36.75;;;;;8.33;69.22;102807.97;5020931;28;45309;-68
2021/11/06 02:49:44;;;;;;;;;45.25;37.00;;;;;8.32;69.13;102800.13;5020397;28;45187;-68
2021/11/06 02:52:09;;;;;;;;;39.00;36.50;;;;;8.31;69.11;102801.03;5020826;28;45463;-68
2021/11/06 02:54:36;;;;;;;;;49.25;37.25;;;;;8.25;68.92;102801.97;5001972;28;45487;-68
2021/11/06 02:57:02;;;;;;;;;40.50;35.50;;;;;8.21;69.21;102802.91;5020484;28;45475;-68
2021/11/06 02:59:27;;;;;;;;;41.75;34.75;;;;;8.15;69.46;102797.78;5020288;28;45829;-68
2021/11/06 03:01:53;;;;;;;;;46.00;37.25;;;;;8.09;69.46;102803.97;5020705;28;45277;-68
2021/11/06 03:04:19;;;;;;;;;36.75;32.50;;;;;8.07;69.66;102800.53;5021319;28;45341;-68
2021/11/06 03:06:45;;;;;;;;;41.00;36.50;;;;;8.04;69.67;102805.81;5020906;28;45381;-68
2021/11/06 03:09:12;;;;;;;;;39.50;35.25;;;;;8.04;69.86;102805.81;5020336;28;46441;-68
2021/11/06 03:11:39;;;;;;;;;39.75;36.75;;;;;8.07;69.68;102811.03;5020149;28;45512;-68
2021/11/06 03:14:07;;;;;;;;;41.25;32.50;;;;;8.01;69.58;102818.13;5020236;28;45344;-68
2021/11/06 03:16:36;;;;;;;;;39.25;36.25;;;;;7.94;69.79;102827.84;5020518;28;45322;-68
2021/11/06 03:19:01;;;;;;;;;47.00;36.00;;;;;7.92;69.99;102824.38;5020113;28;45238;-68
2021/11/06 03:21:28;;;;;;;;;39.25;34.75;;;;;7.91;69.93;102832.28;5023914;28;45288;-68
2021/11/06 03:23:53;;;;;;;;;38.50;30.50;;;;;7.93;70.17;102827.88;5023733;28;45326;-68
2021/11/06 03:26:19;;;;;;;;;36.75;35.00;;;;;7.98;70.37;102813.78;5023485;28;45277;-68
2021/11/06 03:28:44;;;;;;;;;43.75;35.25;;;;;8.02;70.23;102814.59;5042749;28;46209;-68
2021/11/06 03:31:10;;;;;;;;;33.50;31.50;;;;;8.03;70.05;102816.34;5043609;28;45368;-67
2021/11/06 03:33:35;;;;;;;;;40.50;32.75;;;;;7.99;69.95;102818.16;5043480;28;45275;-68
2021/11/06 03:36:02;;;;;;;;;39.50;34.25;;;;;7.95;69.88;102815.59;5031618;28;45324;-68
2021/11/06 03:38:27;;;;;;;;;39.00;33.75;;;;;7.91;70.17;102824.41;5023223;28;45335;-68
2021/11/06 03:40:53;;;;;;;;;37.75;34.25;;;;;7.89;70.33;102831.41;5023347;28;45392;-68
2021/11/06 03:43:19;;;;;;;;;35.00;33.00;;;;;7.85;70.38;102830.59;5023325;28;45452;-68
2021/11/06 03:45:45;;;;;;;;;49.50;38.00;;;;;7.81;70.51;102819.25;5023575;28;45361;-68
2021/11/06 03:48:11;;;;;;;;;47.00;35.25;;;;;7.80;70.16;102821.91;5023147;28;45293;-70
2021/11/06 03:50:36;;;;;;;;;40.00;33.75;;;;;7.77;70.31;102821.97;5023432;28;45236;-68
2021/11/06 03:53:02;;;;;;;;;39.50;34.00;;;;;7.76;70.66;102825.50;5023408;28;45431;-68
2021/11/06 03:55:28;;;;;;;;;43.00;35.00;;;;;7.74;70.61;102830.75;5026110;28;45442;-69
2021/11/06 03:57:54;;;;;;;;;35.00;32.75;;;;;7.72;70.36;102824.66;5042693;28;45303;-69
2021/11/06 04:00:20;;;;;;;;;40.00;31.75;;;;;7.70;70.53;102831.69;5043173;28;45219;-68
2021/11/06 04:02:46;;;;;;;;;38.25;30.00;;;;;7.72;70.58;102824.66;5042952;28;45334;-69
2021/11/06 04:05:13;;;;;;;;;45.00;38.00;;;;;7.73;70.42;102826.38;5043317;28;45323;-69
2021/11/06 04:07:39;;;;;;;;;49.75;38.50;;;;;7.76;70.61;102834.22;5042801;28;45485;-68
2021/11/06 04:10:06;;;;;;;;;39.50;35.00;;;;;7.79;70.66;102838.56;5042844;28;45376;-69
2021/11/06 04:12:32;;;;;;;;;41.50;34.25;;;;;7.83;70.41;102830.63;5042759;28;45308;-69
2021/11/06 04:14:58;;;;;;;;;39.75;35.75;;;;;7.88;70.26;102837.56;5043190;28;45166;-69
2021/11/06 04:17:23;;;;;;;;;43.25;30.75;;;;;7.89;70.11;102834.91;5036328;28;45459;-69
2021/11/06 04:19:49;;;;;;;;;40.25;34.25;;;;;7.90;70.11;102843.63;5022959;28;45241;-69
2021/11/06 04:22:14;;;;;;;;;32.00;26.25;;;;;7.86;69.94;102845.44;5022851;28;45218;-69
2021/11/06 04:24:40;;;;;;;;;39.50;30.00;;;;;7.83;70.06;102843.75;5022795;28;45326;-69
2021/11/06 04:27:06;;;;;;;;;38.50;29.00;;;;;7.81;70.08;102840.25;5022440;28;46061;-69
2021/11/06 04:29:32;;;;;;;;;38.50;29.00;;;;;7.75;69.91;102850.00;5022738;28;45371;-69
2021/11/06 04:31:58;;;;;;;;;39.75;32.50;;;;;7.67;70.24;102847.47;5022505;28;45280;-69
2021/11/06 04:34:23;;;;;;;;;33.25;29.75;;;;;7.67;70.08;102852.72;5022783;28;45582;-71
2021/11/06 04:36:49;;;;;;;;;31.25;27.50;;;;;7.67;70.22;102847.47;5022440;28;46555;-69
2021/11/06 04:39:15;;;;;;;;;36.00;30.50;;;;;7.72;70.41;102850.00;5022717;28;45243;-67
2021/11/06 04:41:41;;;;;;;;;33.00;29.50;;;;;7.74;70.06;102846.50;5022326;28;45273;-68
2021/11/06 04:44:06;;;;;;;;;31.50;29.25;;;;;7.77;70.08;102849.06;5022659;28;45579;-68
2021/11/06 04:46:32;;;;;;;;;34.00;30.00;;;;;7.79;69.77;102855.16;5022157;28;45711;-68
2021/11/06 04:48:57;;;;;;;;;30.50;25.00;;;;;7.82;69.73;102854.28;5022503;28;45178;-68
2021/11/06 04:51:23;;;;;;;;;34.75;27.50;;;;;7.82;69.48;102852.50;5022461;28;45252;-68
2021/11/06 04:53:48;;;;;;;;;36.00;26.00;;;;;7.81;69.85;102855.13;5021012;28;45522;-68
2021/11/06 04:56:14;;;;;;;;;32.25;29.25;;;;;7.79;69.74;102855.16;5021933;28;46240;-67
2021/11/06 04:58:40;;;;;;;;;39.75;30.75;;;;;7.75;69.80;102857.88;5022252;28;45643;-68
2021/11/06 05:01:06;;;;;;;;;29.25;25.75;;;;;7.75;69.95;102853.47;5022252;28;45340;-68
2021/11/06 05:03:32;;;;;;;;;36.00;28.75;;;;;7.72;70.06;102856.13;5022270;28;45642;-68
2021/11/06 05:05:57;;;;;;;;;32.50;29.00;;;;;7.73;69.98;102844.75;5022044;28;45310;-68
2021/11/06 05:08:23;;;;;;;;;23.00;16.75;;;;;7.75;69.74;102845.59;5022129;28;45500;-68
2021/11/06 05:10:48;;;;;;;;;30.00;24.75;;;;;7.77;69.89;102850.84;5021963;28;45387;-68
2021/11/06 05:13:14;;;;;;;;;36.00;27.00;;;;;7.79;69.91;102854.28;5021940;28;45337;-68
2021/11/06 05:15:40;;;;;;;;;28.00;24.75;;;;;7.79;69.92;102852.53;5021895;28;45474;-68
2021/11/06 05:18:05;;;;;;;;;35.50;28.50;;;;;7.78;69.95;102835.06;5021738;28;45286;-67
2021/11/06 05:20:32;;;;;;;;;25.50;22.75;;;;;7.81;69.68;102837.63;5021925;28;45199;-67
2021/11/06 05:22:58;;;;;;;;;36.25;22.75;;;;;7.82;69.61;102841.16;5021929;28;45320;-67
2021/11/06 05:25:23;;;;;;;;;33.25;25.75;;;;;7.83;69.51;102841.13;5021388;28;45545;-67
2021/11/06 05:27:49;;;;;;;;;36.50;27.00;;;;;7.78;69.21;102835.06;5032208;28;45337;-67
2021/11/06 05:30:15;;;;;;;;;32.00;26.25;;;;;7.69;69.54;102832.56;5041948;28;45351;-68
2021/11/06 05:32:41;;;;;;;;;28.00;25.25;;;;;7.59;69.77;102837.97;5043223;28;45336;-68
2021/11/06 05:35:09;;;;;;;;;31.00;22.00;;;;;7.51;69.89;102836.31;5038301;28;45405;-69
2021/11/06 05:37:34;;;;;;;;;25.00;20.25;;;;;7.48;70.28;102832.84;5021932;28;45299;-68
2021/11/06 05:40:00;;;;;;;;;29.00;26.50;;;;;7.44;70.23;102839.91;5021575;28;45454;-68
2021/11/06 05:42:25;;;;;;;;;25.25;15.75;;;;;7.43;70.23;102840.78;5020925;28;45318;-68
2021/11/06 05:44:51;;;;;;;;;33.50;27.00;;;;;7.42;70.33;102831.16;5003635;28;45228;-68
2021/11/06 05:47:17;;;;;;;;;25.50;21.75;;;;;7.42;69.92;102840.78;5021895;28;45277;-68
2021/11/06 05:49:42;;;;;;;;;26.00;25.75;;;;;7.38;70.37;102845.22;5021456;28;45557;-68
2021/11/06 05:52:08;;;;;;;;;35.50;28.25;;;;;7.32;70.13;102845.28;5021467;28;45211;-69
2021/11/06 05:54:34;;;;;;;;;23.75;21.00;;;;;7.30;70.46;102843.56;5015334;28;46201;-69
2021/11/06 05:56:59;;;;;;;;;24.25;21.25;;;;;7.28;70.28;102852.31;5041255;28;45302;-69
2021/11/06 05:59:24;;;;;;;;;30.00;27.00;;;;;7.30;70.42;102856.69;5041249;28;45288;-69
2021/11/06 06:01:50;;;;;;;;;37.75;28.25;;;;;7.29;70.27;102855.81;5041531;28;45431;-69
2021/11/06 06:04:16;;;;;;;;;32.50;25.75;;;;;7.29;70.50;102858.44;5040896;28;46317;-69
2021/11/06 06:06:41;;;;;;;;;27.00;23.75;;;;;7.28;70.15;102852.31;5041170;28;45352;-69
2021/11/06 06:09:07;;;;;;;;;26.50;20.50;;;;;7.34;70.26;102851.38;5041107;28;45495;-69
2021/11/06 06:11:33;;;;;;;;;30.00;26.00;;;;;7.37;70.11;102858.34;5041030;28;45328;-69
2021/11/06 06:13:59;;;;;;;;;40.00;29.50;;;;;7.35;70.00;102858.38;5040727;28;45269;-69
2021/11/06 06:16:25;;;;;;;;;37.25;33.75;;;;;7.35;70.09;102855.75;5041219;28;45315;-69
2021/11/06 06:18:51;;;;;;;;;32.75;29.75;;;;;7.33;69.77;102864.50;5022794;28;45426;-69
2021/11/06 06:21:17;;;;;;;;;35.25;28.50;;;;;7.30;70.34;102859.31;5021373;28;45287;-69
2021/11/06 06:23:42;;;;;;;;;35.50;28.75;;;;;7.27;69.75;102870.69;5020879;28;45226;-69
2021/11/06 06:26:09;;;;;;;;;37.50;29.75;;;;;7.24;70.06;102873.34;5020658;28;45279;-69
2021/11/06 06:28:35;;;;;;;;;34.75;26.50;;;;;7.22;70.15;102875.97;5020556;28;45316;-69
2021/11/06 06:31:01;;;;;;;;;38.00;28.00;;;;;7.21;69.78;102883.88;5021071;28;45410;-69
2021/11/06 06:33:26;;;;;;;;;34.25;29.00;;;;;7.22;70.24;102885.59;5020579;28;45893;-69
2021/11/06 06:35:52;;;;;;;;;39.00;31.50;;;;;7.18;70.05;102891.75;5020811;28;45334;-69
2021/11/06 06:38:17;;;;;;;;;34.25;31.25;;;;;7.18;69.69;102892.59;5020856;28;45476;-69
2021/11/06 06:40:43;;;;;;;;;36.50;28.00;;;;;7.21;69.56;102895.22;5020859;28;45309;-69
2021/11/06 06:43:08;;;;;;;;;37.50;29.00;;;;;7.21;69.66;102895.22;5020365;28;45352;-69
2021/11/06 06:45:34;;;;;;;;;35.75;27.00;;;;;7.24;69.67;102891.69;5020554;28;45353;-69
2021/11/06 06:48:00;;;;;;;;;33.50;29.75;;;;;7.24;69.69;102886.44;5020494;28;45306;-70
2021/11/06 06:50:25;;;;;;;;;31.00;29.00;;;;;7.25;69.94;102888.19;5020583;28;45350;-70
2021/11/06 06:52:51;;;;;;;;;44.75;31.00;;;;;7.25;69.68;102885.56;5020222;28;45467;-69
2021/11/06 06:55:17;;;;;;;;;39.00;32.75;;;;;7.24;69.99;102889.06;5023912;28;45283;-69
2021/11/06 06:57:43;;;;;;;;;34.50;30.25;;;;;7.24;70.03;102887.31;5024123;28;45263;-69
2021/11/06 07:00:11;;;;;;;;;34.00;31.00;;;;;7.28;69.58;102889.03;5024290;28;45424;-69
2021/11/06 07:02:37;;;;;;;;;29.25;24.75;;;;;7.31;69.78;102885.50;5023876;28;45368;-69
2021/11/06 07:05:04;;;;;;;;;35.00;26.75;;;;;7.27;69.83;102891.66;5024082;28;45281;-69
2021/11/06 07:07:30;;;;;;;;;40.00;32.00;;;;;7.21;69.56;102900.47;5024028;28;45356;-69
2021/11/06 07:09:56;;;;;;;;;33.75;29.25;;;;;7.14;69.53;102895.28;5006000;28;45242;-69
2021/11/06 07:12:24;;;;;;;;;38.25;33.50;;;;;7.10;69.87;102896.19;5023607;28;45301;-69
2021/11/06 07:14:50;;;;;;;;;23.50;20.75;;;;;7.08;70.42;102895.34;5023864;28;45571;-69
2021/11/06 07:17:15;;;;;;;;;37.50;30.00;;;;;7.06;70.23;102898.00;5023835;28;45435;-70
2021/11/06 07:19:41;;;;;;;;;32.75;30.50;;;;;7.06;70.53;102894.50;5023796;28;45582;-69
2021/11/06 07:22:06;;;;;;;;;39.25;35.75;;;;;7.08;70.84;102890.13;5023762;28;46069;-69
2021/11/06 07:24:32;;;;;;;;;36.25;33.00;;;;;7.10;70.48;102893.56;5023437;28;45371;-69
2021/11/06 07:26:58;;;;;;;;;36.25;31.25;;;;;7.11;70.76;102888.34;5028418;28;45337;-70
2021/11/06 07:29:23;;;;;;;;;29.50;25.50;;;;;7.13;71.06;102893.56;5042380;28;45560;-70
2021/11/06 07:31:49;;;;;;;;;32.75;30.75;;;;;7.15;70.96;102892.66;5043387;28;45538;-69
2021/11/06 07:34:15;;;;;;;;;43.25;35.00;;;;;7.22;70.64;102891.72;5043432;28;45296;-70
2021/11/06 07:36:40;;;;;;;;;34.25;28.75;;;;;7.25;71.12;102885.56;5026040;28;45491;-69
2021/11/06 07:39:06;;;;;;;;;33.50;31.25;;;;;7.34;70.74;102887.19;5023564;28;45492;-69
2021/11/06 07:41:32;;;;;;;;;41.00;33.00;;;;;7.41;70.83;102888.88;5023033;28;46145;-69
2021/11/06 07:43:57;;;;;;;;;32.75;28.25;;;;;7.47;70.50;102887.06;5023467;28;45179;-69
2021/11/06 07:46:23;;;;;;;;;34.25;29.00;;;;;7.53;70.68;102892.22;5023297;28;45470;-70
2021/11/06 07:48:49;;;;;;;;;40.75;33.75;;;;;7.61;70.46;102888.66;5023527;28;45343;-69
2021/11/06 07:51:16;;;;;;;;;50.00;38.75;;;;;7.66;70.49;102889.44;5023137;28;46016;-70
2021/11/06 07:53:42;;;;;;;;;45.00;38.25;;;;;7.68;70.40;102890.31;5020403;28;45313;-69
2021/11/06 07:56:07;;;;;;;;;37.25;34.00;;;;;7.67;70.47;102899.06;5018069;28;45332;-70
2021/11/06 07:58:33;;;;;;;;;43.00;37.50;;;;;7.68;70.29;102899.03;5023124;28;45377;-70
2021/11/06 08:01:00;;;;;;;;;43.25;34.00;;;;;7.71;70.26;102906.00;5022990;28;46361;-69
2021/11/06 08:03:26;;;;;;;;;41.25;38.00;;;;;7.74;70.29;102898.06;5024569;28;45320;-69
2021/11/06 08:05:52;;;;;;;;;45.00;36.50;;;;;7.74;70.47;102909.47;5023190;28;45262;-70
2021/11/06 08:08:18;;;;;;;;;41.25;39.25;;;;;7.77;70.26;102909.41;5024052;28;45309;-70
2021/11/06 08:10:44;;;;;;;;;50.50;40.00;;;;;7.82;70.48;102909.38;5022966;28;46249;-69
2021/11/06 08:13:11;;;;;;;;;42.25;37.00;;;;;7.90;70.44;102907.50;5030846;28;45309;-69
2021/11/06 08:15:37;;;;;;;;;41.25;34.25;;;;;7.97;70.11;102906.50;5042796;28;45285;-69
2021/11/06 08:18:02;;;;;;;;;46.75;38.50;;;;;8.04;69.99;102904.69;5031570;28;45304;-70
2021/11/06 08:20:28;;;;;;;;;37.50;34.50;;;;;8.09;69.87;102906.34;5022554;28;45416;-69
2021/11/06 08:22:54;;;;;;;;;44.50;35.50;;;;;8.13;69.85;102894.91;5022632;28;45346;-69
2021/11/06 08:25:20;;;;;;;;;41.00;36.00;;;;;8.20;69.59;102900.06;5022607;28;45408;-69
2021/11/06 08:27:48;;;;;;;;;39.50;34.25;;;;;8.25;69.75;102909.63;5022520;28;45234;-69
2021/11/06 08:30:16;;;;;;;;;44.25;36.25;;;;;8.31;69.40;102904.28;5022315;28;45337;-69
2021/11/06 08:32:43;;;;;;;;;41.75;39.50;;;;;8.39;69.39;102905.06;5022627;28;45441;-69
2021/11/06 08:35:10;;;;;;;;;44.00;34.75;;;;;8.45;69.06;102895.34;5022513;28;45333;-69
2021/11/06 08:37:37;;;;;;;;;51.50;40.25;;;;;8.51;69.18;102897.88;5022746;28;45237;-69
2021/11/06 08:40:05;;;;;;;;;54.75;41.25;;;;;8.56;69.22;102893.44;5022068;28;45409;-69
2021/11/06 08:42:32;;;;;;;;;42.25;37.50;;;;;8.59;69.09;102893.38;5022351;28;45363;-70
2021/11/06 08:44:58;;;;;;;;;51.75;40.00;;;;;8.65;68.91;102895.91;5022389;28;45324;-69
2021/11/06 08:47:24;;;;;;;;;46.50;37.25;;;;;8.72;68.99;102886.16;5022665;28;45356;-69
2021/11/06 08:49:50;;;;;;;;;46.25;38.25;;;;;8.80;68.62;102884.25;5022133;28;45404;-69
2021/11/06 08:52:18;;;;;;;;;40.75;38.00;;;;;8.91;68.93;102883.16;5022468;28;45237;-67
2021/11/06 08:54:45;;;;;;;;;39.50;36.75;;;;;8.98;68.76;102889.19;5015500;28;45384;-68
2021/11/06 08:57:11;;;;;;;;;41.00;33.75;;;;;9.04;68.16;102888.22;5022445;28;45523;-68
2021/11/06 08:59:36;;;;;;;;;34.75;31.50;;;;;9.11;67.98;102895.97;5022003;28;45380;-68
2021/11/06 09:02:02;;;;;;;;;35.00;31.25;;;;;9.18;67.73;102896.72;5022229;28;45332;-69
2021/11/06 09:04:28;;;;;;;;;41.50;32.75;;;;;9.27;67.57;102899.16;5021996;28;45333;-69
2021/11/06 09:06:55;;;;;;;;;40.50;32.00;;;;;9.35;66.99;102896.38;5022152;28;45471;-69
2021/11/06 09:09:21;;;;;;;;;40.25;37.00;;;;;9.41;67.11;102896.28;5021320;28;45283;-68
2021/11/06 09:11:48;;;;;;;;;38.50;31.25;;;;;9.48;66.81;102887.38;5021841;28;45233;-68
2021/11/06 09:14:14;;;;;;;;;29.00;26.25;;;;;9.57;66.73;102892.44;5021781;28;45393;-68
2021/11/06 09:16:40;;;;;;;;;37.75;33.25;;;;;9.66;66.61;102899.28;4999635;28;47851;-68
2021/11/06 09:19:07;;;;;;;;;28.50;25.25;;;;;9.72;66.22;102893.88;5022870;28;46071;-68
2021/11/06 09:21:34;;;;;;;;;30.50;27.00;;;;;9.82;65.63;102899.81;5021409;28;45474;-68
2021/11/06 09:24:03;;;;;;;;;27.75;26.00;;;;;9.88;64.63;102892.66;5016505;28;45316;-68
2021/11/06 09:26:34;;;;;;;;;23.75;22.75;;;;;9.95;64.69;102898.63;5020896;28;45178;-68
2021/11/06 09:29:00;;;;;;;;;28.50;25.00;;;;;9.99;64.09;102905.56;5015682;28;45387;-69
2021/11/06 09:31:27;;;;;;;;;25.75;23.75;;;;;10.04;63.73;102901.94;5020657;28;45245;-68
2021/11/06 09:33:52;;;;;;;;;22.25;18.50;;;;;10.09;63.33;102891.28;5020035;28;45296;-68
2021/11/06 09:36:18;;;;;;;;;27.00;23.50;;;;;10.13;63.41;102892.97;5010209;28;45443;-68
2021/11/06 09:38:45;;;;;;;;;34.00;28.75;;;;;10.16;64.56;102892.03;5021494;28;45975;-68
2021/11/06 09:41:11;;;;;;;;;36.50;31.00;;;;;10.21;64.32;102895.41;5017208;28;45276;-68
2021/11/06 09:43:39;;;;;;;;;35.50;33.00;;;;;10.26;64.28;102885.66;5016615;28;45266;-68
2021/11/06 09:46:08;;;;;;;;;34.75;31.00;;;;;10.33;63.94;102885.47;5021182;28;45774;-68
2021/11/06 09:48:34;;;;;;;;;36.25;31.00;;;;;10.39;63.84;102894.16;5020834;28;46301;-68
2021/11/06 09:51:00;;;;;;;;;40.75;31.25;;;;;10.44;63.81;102887.88;5019794;28;45371;-68
2021/11/06 09:53:31;;;;;;;;;28.25;27.00;;;;;10.50;63.27;102890.34;5021020;28;45266;-69
2021/11/06 09:55:57;;;;;;;;;34.50;29.25;;;;;10.56;62.86;102887.56;5020967;28;45170;-68
2021/11/06 09:58:23;;;;;;;;;30.75;26.25;;;;;10.60;62.77;102880.47;5016413;28;46100;-69
2021/11/06 10:00:49;;;;;;;;;31.75;27.75;;;;;10.62;62.89;102889.19;5016486;28;45815;-68
2021/11/06 10:03:16;;;;;;;;;29.50;26.50;;;;;10.63;62.30;102889.13;5015336;28;45387;-68
2021/11/06 10:05:56;;;;;;;;;35.50;29.00;;;;;10.67;62.59;102891.72;5016354;28;45452;-69
2021/11/06 10:08:34;;;;;;;;;30.00;29.00;;;;;10.68;62.29;102894.31;5018076;28;45393;-68
2021/11/06 10:11:03;;;;;;;;;30.75;28.75;;;;;10.69;62.40;102888.13;5019843;28;45509;-68
2021/11/06 10:13:29;;;;;;;;;35.25;30.50;;;;;10.72;62.19;102879.25;5017578;28;45288;-68
2021/11/06 10:15:57;;;;;;;;;36.50;33.25;;;;;10.77;62.13;102878.25;5008045;28;45414;-68
2021/11/06 10:18:25;;;;;;;;;27.75;24.50;;;;;10.81;61.12;102879.88;5014988;28;45433;-68
2021/11/06 10:21:03;;;;;;;;;28.75;25.75;;;;;10.83;61.10;102874.59;5016326;28;45360;-68
2021/11/06 10:23:32;;;;;;;;;29.50;25.50;;;;;10.87;61.20;102868.31;5012289;28;45436;-68
2021/11/06 10:26:19;;;;;;;;;27.00;21.75;;;;;10.96;61.43;102867.22;5006325;28;45329;-68
2021/11/06 10:28:52;;;;;;;;;26.25;22.25;;;;;11.00;61.14;102877.66;5001936;28;47844;-68
2021/11/06 10:31:18;;;;;;;;;24.25;20.50;;;;;11.05;60.64;102875.72;5020441;28;45407;-68
2021/11/06 10:33:47;;;;;;;;;22.00;17.00;;;;;11.10;60.30;102872.97;5022036;28;45167;-69
2021/11/06 10:36:25;;;;;;;;;15.50;13.25;;;;;11.13;59.89;102873.75;5021078;28;45599;-69
2021/11/06 10:38:59;;;;;;;;;15.75;15.75;;;;;11.14;59.12;102870.22;5020876;28;45238;-68
2021/11/06 10:41:31;;;;;;;;;17.25;13.75;;;;;11.15;59.39;102873.75;5020239;28;45332;-69
2021/11/06 10:43:57;;;;;;;;;16.25;13.75;;;;;11.20;59.45;102869.19;5020713;28;45470;-69
2021/11/06 10:46:28;;;;;;;;;17.00;14.75;;;;;11.27;59.20;102856.69;5020800;28;45583;-69
2021/11/06 10:48:55;;;;;;;;;14.00;13.00;;;;;11.31;58.70;102859.22;5018213;28;45396;-68
2021/11/06 10:51:21;;;;;;;;;16.50;13.50;;;;;11.35;58.41;102860.84;5019501;28;45548;-68
2021/11/06 10:53:52;;;;;;;;;14.25;9.75;;;;;11.38;58.09;102860.75;5020400;28;45241;-68
2021/11/06 10:56:17;;;;;;;;;12.50;11.00;;;;;11.43;57.95;102857.97;5020285;28;45163;-69
2021/11/06 10:58:45;;;;;;;;;10.00;9.75;;;;;11.46;58.00;102863.19;5020507;28;46190;-69
2021/11/06 11:01:32;;;;;;;;;11.00;9.75;;;;;11.51;57.74;102858.63;5020515;28;45345;-69
2021/11/06 11:04:01;;;;;;;;;9.50;8.00;;;;;11.54;57.73;102850.63;5019915;28;45359;-69
2021/11/06 11:06:32;;;;;;;;;8.00;4.75;;;;;11.61;58.01;102854.81;5020420;28;45427;-69
2021/11/06 11:08:58;;;;;;;;;13.00;12.25;;;;;11.62;57.58;102853.03;5020229;28;45389;-69
2021/11/06 11:11:27;;;;;;;;;11.75;9.75;;;;;11.63;57.64;102847.72;5019908;28;45376;-69
2021/11/06 11:13:56;;;;;;;;;9.75;7.75;;;;;11.63;57.30;102850.34;5020786;28;45213;-69